createdAt,value
2018-03-27T00:00:04.259Z,35.66
2018-03-27T00:01:13.359Z,35.47
2018-03-27T00:02:22.184Z,35.19
2018-03-27T00:03:31.285Z,34.34
2018-03-27T00:04:40.113Z,34.06
2018-03-27T00:05:49.573Z,33.11
2018-03-27T00:06:58.398Z,32.82
2018-03-27T00:08:07.226Z,32.64
2018-03-27T00:09:16.057Z,32.82
2018-03-27T00:10:24.877Z,32.64
2018-03-27T00:11:33.852Z,32.82
2018-03-27T00:12:42.677Z,32.64
2018-03-27T00:13:51.503Z,33.01
2018-03-27T00:15:00.329Z,33.01
2018-03-27T00:16:09.161Z,32.92
2018-03-27T00:17:18.084Z,32.64
2018-03-27T00:18:26.911Z,32.26
2018-03-27T00:19:35.739Z,31.98
2018-03-27T00:20:44.839Z,32.17
2018-03-27T00:21:53.664Z,31.98
2018-03-27T00:23:02.639Z,32.07
2018-03-27T00:24:11.473Z,31.98
2018-03-27T00:25:20.301Z,32.17
2018-03-27T00:26:29.408Z,32.26
2018-03-27T00:27:38.511Z,31.88
2018-03-27T00:28:47.642Z,31.88
2018-03-27T00:29:56.465Z,32.26
2018-03-27T00:31:05.290Z,32.17
2018-03-27T00:32:14.117Z,32.64
2018-03-27T00:33:22.960Z,32.54
2018-03-27T00:34:31.837Z,33.01
2018-03-27T00:35:40.659Z,32.73
2018-03-27T00:36:49.484Z,32.92
2018-03-27T00:37:58.595Z,32.92
2018-03-27T00:39:07.424Z,33.01
2018-03-27T00:40:16.402Z,32.92
2018-03-27T00:41:25.513Z,33.01
2018-03-27T00:42:34.335Z,32.92
2018-03-27T00:43:43.161Z,32.92
2018-03-27T00:44:51.988Z,32.82
2018-03-27T00:46:01.291Z,32.82
2018-03-27T00:47:10.119Z,32.82
2018-03-27T00:48:18.960Z,32.73
2018-03-27T00:49:28.358Z,32.82
2018-03-27T00:50:37.176Z,32.82
2018-03-27T00:51:46.005Z,32.82
2018-03-27T00:52:54.830Z,32.64
2018-03-27T00:54:03.946Z,32.73
2018-03-27T00:55:12.772Z,32.73
2018-03-27T00:56:21.595Z,32.73
2018-03-27T00:57:30.423Z,32.73
2018-03-27T00:58:39.247Z,32.64
2018-03-27T00:59:48.076Z,32.73
2018-03-27T01:00:56.901Z,32.82
2018-03-27T01:02:05.728Z,33.01
2018-03-27T01:03:14.556Z,33.01
2018-03-27T01:04:23.380Z,32.73
2018-03-27T01:05:32.212Z,33.01
2018-03-27T01:06:41.037Z,33.01
2018-03-27T01:07:50.135Z,33.01
2018-03-27T01:08:59.289Z,32.73
2018-03-27T01:10:08.117Z,32.73
2018-03-27T01:11:17.224Z,32.73
2018-03-27T01:12:26.321Z,32.73
2018-03-27T01:13:35.147Z,32.73
2018-03-27T01:14:44.273Z,32.73
2018-03-27T01:15:53.648Z,32.82
2018-03-27T01:17:02.474Z,32.82
2018-03-27T01:18:11.303Z,32.82
2018-03-27T01:19:20.127Z,32.73
2018-03-27T01:20:29.109Z,32.82
2018-03-27T01:21:37.936Z,32.82
2018-03-27T01:22:47.041Z,32.82
2018-03-27T01:23:55.868Z,32.82
2018-03-27T01:25:04.694Z,32.73
2018-03-27T01:26:13.671Z,32.92
2018-03-27T01:27:22.497Z,32.92
2018-03-27T01:28:31.322Z,32.92
2018-03-27T01:29:40.147Z,32.92
2018-03-27T01:30:48.975Z,32.92
2018-03-27T01:31:57.899Z,32.82
2018-03-27T01:33:06.731Z,32.82
2018-03-27T01:34:15.550Z,32.92
2018-03-27T01:35:24.375Z,32.92
2018-03-27T01:36:33.202Z,32.92
2018-03-27T01:37:42.179Z,33.01
2018-03-27T01:38:51.006Z,32.92
2018-03-27T01:39:59.832Z,32.92
2018-03-27T01:41:08.657Z,33.01
2018-03-27T01:42:17.483Z,32.92
2018-03-27T01:43:26.695Z,32.82
2018-03-27T01:44:35.793Z,32.92
2018-03-27T01:45:44.628Z,32.92
2018-03-27T01:46:53.445Z,32.82
2018-03-27T01:48:02.272Z,32.64
2018-03-27T01:49:11.259Z,32.92
2018-03-27T01:50:20.079Z,32.64
2018-03-27T01:51:28.905Z,32.54
2018-03-27T01:52:37.730Z,32.64
2018-03-27T01:53:46.556Z,32.64
2018-03-27T01:54:55.808Z,32.26
2018-03-27T01:56:04.630Z,32.35
2018-03-27T01:57:13.456Z,32.54
2018-03-27T01:58:22.283Z,32.35
2018-03-27T01:59:31.110Z,32.82
2018-03-27T02:00:39.985Z,33.01
2018-03-27T02:01:48.812Z,32.45
2018-03-27T02:02:57.639Z,32.82
2018-03-27T02:04:06.466Z,32.92
2018-03-27T02:05:15.300Z,32.9
2018-03-27T02:06:24.117Z,33
2018-03-27T02:07:32.950Z,32.71
2018-03-27T02:08:42.059Z,33.09
2018-03-27T02:09:50.886Z,32.9
2018-03-27T02:10:59.988Z,32.71
2018-03-27T02:12:09.111Z,33
2018-03-27T02:13:18.214Z,33.09
2018-03-27T02:14:27.090Z,33.09
2018-03-27T02:15:35.863Z,32.9
2018-03-27T02:16:44.689Z,33.18
2018-03-27T02:17:53.513Z,33.18
2018-03-27T02:19:02.337Z,33
2018-03-27T02:20:11.162Z,33.28
2018-03-27T02:21:19.990Z,33.37
2018-03-27T02:22:28.817Z,33.94
2018-03-27T02:23:37.693Z,33.94
2018-03-27T02:24:46.519Z,33.85
2018-03-27T02:25:55.345Z,33.94
2018-03-27T02:27:04.171Z,33.94
2018-03-27T02:28:12.999Z,34.04
2018-03-27T02:29:21.977Z,33.85
2018-03-27T02:30:30.806Z,34.04
2018-03-27T02:31:39.633Z,33.94
2018-03-27T02:32:48.461Z,33.85
2018-03-27T02:33:57.291Z,33.75
2018-03-27T02:35:06.695Z,33.75
2018-03-27T02:36:15.531Z,33.85
2018-03-27T02:37:24.355Z,33.94
2018-03-27T02:38:33.458Z,33.85
2018-03-27T02:39:42.574Z,33.75
2018-03-27T02:40:51.448Z,33.94
2018-03-27T02:42:00.281Z,33.85
2018-03-27T02:43:09.382Z,33.85
2018-03-27T02:44:18.489Z,33.94
2018-03-27T02:45:27.317Z,33.85
2018-03-27T02:46:36.240Z,33.85
2018-03-27T02:47:45.065Z,33.85
2018-03-27T02:48:53.901Z,33.94
2018-03-27T02:50:03.003Z,33.56
2018-03-27T02:51:12.106Z,33.56
2018-03-27T02:52:21.081Z,33.56
2018-03-27T02:53:29.910Z,33.47
2018-03-27T02:54:38.760Z,33.28
2018-03-27T02:55:47.562Z,33.47
2018-03-27T02:56:56.388Z,33.47
2018-03-27T02:58:05.418Z,33
2018-03-27T02:59:14.519Z,33
2018-03-27T03:00:23.343Z,33.09
2018-03-27T03:01:32.447Z,33.09
2018-03-27T03:02:41.564Z,33
2018-03-27T03:03:51.247Z,32.9
2018-03-27T03:05:00.082Z,33.09
2018-03-27T03:06:09.187Z,33
2018-03-27T03:07:18.301Z,33
2018-03-27T03:08:27.112Z,33.09
2018-03-27T03:09:36.243Z,33
2018-03-27T03:10:45.067Z,33
2018-03-27T03:11:53.894Z,32.71
2018-03-27T03:13:02.720Z,33.18
2018-03-27T03:14:11.547Z,32.62
2018-03-27T03:15:20.372Z,32.62
2018-03-27T03:16:29.198Z,32.71
2018-03-27T03:17:38.026Z,32.81
2018-03-27T03:18:46.852Z,32.71
2018-03-27T03:19:55.960Z,32.81
2018-03-27T03:21:04.786Z,32.9
2018-03-27T03:22:13.608Z,32.9
2018-03-27T03:23:22.433Z,32.9
2018-03-27T03:24:31.546Z,32.71
2018-03-27T03:25:40.646Z,32.81
2018-03-27T03:26:49.670Z,32.71
2018-03-27T03:27:58.501Z,32.71
2018-03-27T03:29:07.322Z,33
2018-03-27T03:30:16.148Z,32.62
2018-03-27T03:31:24.972Z,33
2018-03-27T03:32:33.947Z,32.71
2018-03-27T03:33:42.772Z,33.18
2018-03-27T03:34:51.598Z,32.9
2018-03-27T03:36:00.701Z,33
2018-03-27T03:37:09.526Z,32.81
2018-03-27T03:38:18.752Z,33
2018-03-27T03:39:27.579Z,32.9
2018-03-27T03:40:36.680Z,33
2018-03-27T03:41:45.505Z,33
2018-03-27T03:42:54.333Z,33
2018-03-27T03:44:03.261Z,33.09
2018-03-27T03:45:12.084Z,32.9
2018-03-27T03:46:20.908Z,32.71
2018-03-27T03:47:29.738Z,32.71
2018-03-27T03:48:38.560Z,32.9
2018-03-27T03:49:47.639Z,32.81
2018-03-27T03:50:56.461Z,33
2018-03-27T03:52:05.564Z,32.9
2018-03-27T03:53:14.387Z,32.9
2018-03-27T03:54:23.213Z,32.81
2018-03-27T03:55:32.138Z,32.53
2018-03-27T03:56:40.963Z,32.9
2018-03-27T03:57:50.081Z,32.43
2018-03-27T03:58:58.894Z,32.53
2018-03-27T04:00:07.720Z,32.62
2018-03-27T04:01:16.794Z,32.43
2018-03-27T04:02:25.624Z,32.34
2018-03-27T04:03:35.015Z,31.77
2018-03-27T04:04:43.841Z,31.67
2018-03-27T04:05:52.669Z,31.67
2018-03-27T04:07:01.923Z,31.86
2018-03-27T04:08:10.749Z,31.96
2018-03-27T04:09:19.572Z,32.05
2018-03-27T04:10:28.397Z,31.48
2018-03-27T04:11:37.226Z,31.67
2018-03-27T04:12:46.202Z,31.67
2018-03-27T04:13:55.031Z,30.82
2018-03-27T04:15:03.856Z,30.54
2018-03-27T04:16:12.691Z,30.35
2018-03-27T04:17:21.517Z,30.26
2018-03-27T04:18:30.642Z,30.07
2018-03-27T04:19:39.471Z,30.26
2018-03-27T04:20:48.574Z,30.16
2018-03-27T04:21:57.400Z,30.07
2018-03-27T04:23:06.227Z,29.79
2018-03-27T04:24:15.436Z,29.97
2018-03-27T04:25:24.542Z,29.88
2018-03-27T04:26:33.368Z,29.97
2018-03-27T04:27:42.192Z,29.6
2018-03-27T04:28:51.018Z,29.79
2018-03-27T04:29:59.895Z,29.69
2018-03-27T04:31:08.721Z,29.31
2018-03-27T04:32:17.548Z,29.03
2018-03-27T04:33:26.376Z,28.93
2018-03-27T04:34:35.207Z,28.84
2018-03-27T04:35:44.355Z,28.46
2018-03-27T04:36:53.184Z,28.84
2018-03-27T04:38:02.285Z,28.46
2018-03-27T04:39:11.111Z,28.74
2018-03-27T04:40:19.938Z,28.74
2018-03-27T04:41:28.867Z,28.36
2018-03-27T04:42:37.968Z,28.55
2018-03-27T04:43:47.070Z,28.36
2018-03-27T04:44:56.174Z,28.47
2018-03-27T04:46:05.000Z,28.27
2018-03-27T04:47:13.924Z,28.28
2018-03-27T04:48:22.752Z,28.09
2018-03-27T04:49:31.593Z,28.27
2018-03-27T04:50:40.401Z,28.09
2018-03-27T04:51:49.508Z,28.19
2018-03-27T04:52:58.384Z,28.28
2018-03-27T04:54:07.292Z,28.09
2018-03-27T04:55:16.317Z,28.09
2018-03-27T04:56:25.144Z,28.28
2018-03-27T04:57:33.976Z,28.28
2018-03-27T04:58:43.196Z,28
2018-03-27T04:59:52.021Z,28.19
2018-03-27T05:01:00.847Z,28.28
2018-03-27T05:02:09.674Z,27.91
2018-03-27T05:03:18.504Z,27.91
2018-03-27T05:04:27.478Z,28.09
2018-03-27T05:05:36.302Z,28
2018-03-27T05:06:45.129Z,27.62
2018-03-27T05:07:53.954Z,27.53
2018-03-27T05:09:02.780Z,26.77
2018-03-27T05:10:11.606Z,27.06
2018-03-27T05:11:20.435Z,27.06
2018-03-27T05:12:29.536Z,26.96
2018-03-27T05:13:38.362Z,26.68
2018-03-27T05:14:47.199Z,26.58
2018-03-27T05:15:56.306Z,26.58
2018-03-27T05:17:05.136Z,26.39
2018-03-27T05:18:14.237Z,26.3
2018-03-27T05:19:23.062Z,26.39
2018-03-27T05:20:31.886Z,26.11
2018-03-27T05:21:40.761Z,26.11
2018-03-27T05:22:49.589Z,26.2
2018-03-27T05:23:58.414Z,26.11
2018-03-27T05:25:07.240Z,26.2
2018-03-27T05:26:16.072Z,26.01
2018-03-27T05:27:25.473Z,26.2
2018-03-27T05:28:34.301Z,26.2
2018-03-27T05:29:43.140Z,26.39
2018-03-27T05:30:52.235Z,26.3
2018-03-27T05:32:01.060Z,26.58
2018-03-27T05:33:10.438Z,26.2
2018-03-27T05:34:19.262Z,26.01
2018-03-27T05:35:28.089Z,26.01
2018-03-27T05:36:36.915Z,26.39
2018-03-27T05:37:46.022Z,26.2
2018-03-27T05:38:55.098Z,26.11
2018-03-27T05:40:03.928Z,26.11
2018-03-27T05:41:13.030Z,26.2
2018-03-27T05:42:22.132Z,26.2
2018-03-27T05:43:30.958Z,26.3
2018-03-27T05:44:40.184Z,26.39
2018-03-27T05:45:49.009Z,26.01
2018-03-27T05:46:57.834Z,25.73
2018-03-27T05:48:06.661Z,25.92
2018-03-27T05:49:15.488Z,25.82
2018-03-27T05:50:24.365Z,26.01
2018-03-27T05:51:33.194Z,25.82
2018-03-27T05:52:42.021Z,25.82
2018-03-27T05:53:50.848Z,26.11
2018-03-27T05:54:59.952Z,25.73
2018-03-27T05:56:09.207Z,25.73
2018-03-27T05:57:18.031Z,25.73
2018-03-27T05:58:26.861Z,25.45
2018-03-27T05:59:35.693Z,25.54
2018-03-27T06:00:44.794Z,25.35
2018-03-27T06:01:53.919Z,25.63
2018-03-27T06:03:02.746Z,25.63
2018-03-27T06:04:11.848Z,25.35
2018-03-27T06:05:20.677Z,25.63
2018-03-27T06:06:29.782Z,25.63
2018-03-27T06:07:39.463Z,25.73
2018-03-27T06:08:48.575Z,25.26
2018-03-27T06:09:57.411Z,25.45
2018-03-27T06:11:06.228Z,25.35
2018-03-27T06:12:15.056Z,25.37
2018-03-27T06:13:24.269Z,25.35
2018-03-27T06:14:33.096Z,25.63
2018-03-27T06:15:41.926Z,25.54
2018-03-27T06:16:50.752Z,25.35
2018-03-27T06:17:59.580Z,25.46
2018-03-27T06:19:08.738Z,25.46
2018-03-27T06:20:17.566Z,25.27
2018-03-27T06:21:26.392Z,25.26
2018-03-27T06:22:35.222Z,25.46
2018-03-27T06:23:44.048Z,25.37
2018-03-27T06:24:52.876Z,25.27
2018-03-27T06:26:01.703Z,25.37
2018-03-27T06:27:10.531Z,25.27
2018-03-27T06:28:19.360Z,25.18
2018-03-27T06:29:28.188Z,25.37
2018-03-27T06:30:37.117Z,25.18
2018-03-27T06:31:45.943Z,25.18
2018-03-27T06:32:54.770Z,25.08
2018-03-27T06:34:03.597Z,25.08
2018-03-27T06:35:12.424Z,25.18
2018-03-27T06:36:21.451Z,25.18
2018-03-27T06:37:30.278Z,25.18
2018-03-27T06:38:39.106Z,25.08
2018-03-27T06:39:47.935Z,25.27
2018-03-27T06:40:57.319Z,25.27
2018-03-27T06:42:06.347Z,25.18
2018-03-27T06:43:15.123Z,24.99
2018-03-27T06:44:23.954Z,25.08
2018-03-27T06:45:32.781Z,25.18
2018-03-27T06:46:41.611Z,25.37
2018-03-27T06:47:50.498Z,25.18
2018-03-27T06:48:59.321Z,25.18
2018-03-27T06:50:08.149Z,24.99
2018-03-27T06:51:16.977Z,25.37
2018-03-27T06:52:26.129Z,25.37
2018-03-27T06:53:35.012Z,25.27
2018-03-27T06:54:44.120Z,25.08
2018-03-27T06:55:53.228Z,25.37
2018-03-27T06:57:02.341Z,25.27
2018-03-27T06:58:11.720Z,25.27
2018-03-27T06:59:20.697Z,25.27
2018-03-27T07:00:29.527Z,25.37
2018-03-27T07:01:38.373Z,25.18
2018-03-27T07:02:47.209Z,25.27
2018-03-27T07:03:56.014Z,25.27
2018-03-27T07:05:05.168Z,25.56
2018-03-27T07:06:14.281Z,25.37
2018-03-27T07:07:23.107Z,25.37
2018-03-27T07:08:31.952Z,24.89
2018-03-27T07:09:40.769Z,25.28
2018-03-27T07:10:49.980Z,25.76
2018-03-27T07:11:58.809Z,25.38
2018-03-27T07:13:07.676Z,25.47
2018-03-27T07:14:16.785Z,25.66
2018-03-27T07:15:25.611Z,25.57
2018-03-27T07:16:34.538Z,25.57
2018-03-27T07:17:43.384Z,25.19
2018-03-27T07:18:52.227Z,25.28
2018-03-27T07:20:01.045Z,25.19
2018-03-27T07:21:10.155Z,25.76
2018-03-27T07:22:19.133Z,25.76
2018-03-27T07:23:27.963Z,25.38
2018-03-27T07:24:36.793Z,25.47
2018-03-27T07:25:45.698Z,25.76
2018-03-27T07:26:54.737Z,25.66
2018-03-27T07:28:03.816Z,25.76
2018-03-27T07:29:12.645Z,25.85
2018-03-27T07:30:21.473Z,25.85
2018-03-27T07:31:30.580Z,25.76
2018-03-27T07:32:39.416Z,25.66
2018-03-27T07:33:48.290Z,26.14
2018-03-27T07:34:57.119Z,26.14
2018-03-27T07:36:05.958Z,25.76
2018-03-27T07:37:15.059Z,26.14
2018-03-27T07:38:24.173Z,26.14
2018-03-27T07:39:33.575Z,26.42
2018-03-27T07:40:42.405Z,26.32
2018-03-27T07:41:51.236Z,26.32
2018-03-27T07:43:00.065Z,26.51
2018-03-27T07:44:09.172Z,26.14
2018-03-27T07:45:18.052Z,26.05
2018-03-27T07:46:26.883Z,26.53
2018-03-27T07:47:35.713Z,26.62
2018-03-27T07:48:44.543Z,26.72
2018-03-27T07:49:53.376Z,26.9
2018-03-27T07:51:02.582Z,27
2018-03-27T07:52:11.412Z,27
2018-03-27T07:53:20.520Z,26.81
2018-03-27T07:54:29.351Z,27
2018-03-27T07:55:38.181Z,26.9
2018-03-27T07:56:47.059Z,27.09
2018-03-27T07:57:56.177Z,26.81
2018-03-27T07:59:05.008Z,26.72
2018-03-27T08:00:13.835Z,27.09
2018-03-27T08:01:22.666Z,27
2018-03-27T08:02:31.642Z,26.9
2018-03-27T08:03:40.746Z,26.72
2018-03-27T08:04:49.856Z,26.81
2018-03-27T08:05:58.977Z,26.62
2018-03-27T08:07:07.808Z,26.9
2018-03-27T08:08:16.788Z,26.81
2018-03-27T08:09:25.618Z,27.09
2018-03-27T08:10:34.451Z,27
2018-03-27T08:11:43.282Z,26.9
2018-03-27T08:12:52.114Z,27.76
2018-03-27T08:14:01.094Z,28.04
2018-03-27T08:15:09.924Z,29.56
2018-03-27T08:16:18.752Z,29.56
2018-03-27T08:17:27.586Z,29.65
2018-03-27T08:18:36.416Z,30.69
2018-03-27T08:19:45.496Z,34.12
2018-03-27T08:20:54.324Z,32.7
2018-03-27T08:23:44.039Z,34.88
2018-03-27T08:24:52.920Z,36.02
2018-03-27T08:26:01.753Z,35.83
2018-03-27T08:27:10.582Z,36.59
2018-03-27T08:28:19.414Z,38.39
2018-03-27T08:29:28.240Z,38.39
2018-03-27T08:30:37.319Z,37.82
2018-03-27T08:31:46.148Z,37.92
2018-03-27T08:32:54.975Z,37.54
2018-03-27T08:34:03.807Z,39.83
2018-03-27T08:35:12.644Z,40.97
2018-03-27T08:36:21.721Z,40.76
2018-03-27T08:37:30.447Z,40.4
2018-03-27T08:38:39.281Z,41.54
2018-03-27T08:39:48.114Z,43.34
2018-03-27T08:40:56.943Z,43.05
2018-03-27T08:42:05.926Z,45.05
2018-03-27T08:43:14.759Z,46.75
2018-03-27T08:44:23.937Z,47.23
2018-03-27T08:45:32.774Z,48.3
2018-03-27T08:46:41.607Z,48.49
2018-03-27T08:47:50.489Z,51.05
2018-03-27T08:48:59.323Z,52
2018-03-27T08:50:08.154Z,54.94
2018-03-27T08:51:16.985Z,54.46
2018-03-27T08:52:25.818Z,54.27
2018-03-27T08:53:34.647Z,54.94
2018-03-27T08:54:43.764Z,55.6
2018-03-27T08:55:52.872Z,56.65
2018-03-27T08:57:01.705Z,57.34
2018-03-27T08:58:10.537Z,59.14
2018-03-27T08:59:19.523Z,58.67
2018-03-27T09:00:28.356Z,59.24
2018-03-27T09:01:37.190Z,59.33
2018-03-27T09:02:46.023Z,59.62
2018-03-27T09:03:54.855Z,59.33
2018-03-27T09:05:03.790Z,59.33
2018-03-27T09:06:12.628Z,59.81
2018-03-27T09:07:21.454Z,61.04
2018-03-27T09:08:30.287Z,61.04
2018-03-27T09:09:39.121Z,61.14
2018-03-27T09:10:48.053Z,61.42
2018-03-27T09:11:56.883Z,61.52
2018-03-27T09:13:05.717Z,61.52
2018-03-27T09:14:14.549Z,61.52
2018-03-27T09:15:23.379Z,63.32
2018-03-27T09:16:32.214Z,63.89
2018-03-27T09:17:41.046Z,63.89
2018-03-27T09:18:49.878Z,63.89
2018-03-27T09:19:58.713Z,63.6
2018-03-27T09:21:07.547Z,64.11
2018-03-27T09:22:16.430Z,64.69
2018-03-27T09:23:25.285Z,64.4
2018-03-27T09:24:34.097Z,64.87
2018-03-27T09:25:42.939Z,64.11
2018-03-27T09:26:51.765Z,64.49
2018-03-27T09:28:00.924Z,64.87
2018-03-27T09:29:09.757Z,64.59
2018-03-27T09:30:18.590Z,65.44
2018-03-27T09:31:27.425Z,66.01
2018-03-27T09:32:36.257Z,65.92
2018-03-27T09:33:45.190Z,66.58
2018-03-27T09:34:54.024Z,66.49
2018-03-27T09:36:02.858Z,66.87
2018-03-27T09:37:11.691Z,66.87
2018-03-27T09:38:20.526Z,67.72
2018-03-27T09:39:29.458Z,68.1
2018-03-27T09:40:38.293Z,68.01
2018-03-27T09:41:47.129Z,67.91
2018-03-27T09:42:55.965Z,68.9
2018-03-27T09:44:04.792Z,68.33
2018-03-27T09:45:14.003Z,69.18
2018-03-27T09:46:23.113Z,69.85
2018-03-27T09:47:32.224Z,69.94
2018-03-27T09:48:41.062Z,69.85
2018-03-27T09:49:50.170Z,70.13
2018-03-27T09:50:59.534Z,70.13
2018-03-27T09:52:08.606Z,70.32
2018-03-27T09:53:17.719Z,69.75
2018-03-27T09:54:26.553Z,70.89
2018-03-27T09:55:35.386Z,70.42
2018-03-27T09:56:44.373Z,70.42
2018-03-27T09:57:53.206Z,70.51
2018-03-27T09:59:02.041Z,70.51
2018-03-27T10:00:10.876Z,70.42
2018-03-27T10:01:19.711Z,70.04
2018-03-27T10:02:28.695Z,70.32
2018-03-27T10:03:37.807Z,72.03
2018-03-27T10:04:46.641Z,71.27
2018-03-27T10:05:55.475Z,71.27
2018-03-27T10:07:04.310Z,71.37
2018-03-27T10:08:13.559Z,71.56
2018-03-27T10:09:22.389Z,71.18
2018-03-27T10:10:31.224Z,71.37
2018-03-27T10:11:40.059Z,74.07
2018-03-27T10:12:49.177Z,73.74
2018-03-27T10:13:58.263Z,74.03
2018-03-27T10:15:07.096Z,73.59
2018-03-27T10:16:15.931Z,74.12
2018-03-27T10:17:24.767Z,73.88
2018-03-27T10:18:33.601Z,74.44
2018-03-27T10:19:42.742Z,75.68
2018-03-27T10:20:51.849Z,75.4
2018-03-27T10:22:00.681Z,75.49
2018-03-27T10:23:09.516Z,75.02
2018-03-27T10:24:18.351Z,74.92
2018-03-27T10:25:27.561Z,75.68
2018-03-27T10:26:36.398Z,75.59
2018-03-27T10:27:45.232Z,75.87
2018-03-27T10:28:54.072Z,75.96
2018-03-27T10:30:02.907Z,76.06
2018-03-27T10:31:11.891Z,75.87
2018-03-27T10:32:20.726Z,76.06
2018-03-27T10:33:29.563Z,75.87
2018-03-27T10:34:38.398Z,76.16
2018-03-27T10:35:47.512Z,77.2
2018-03-27T10:36:56.447Z,76.63
2018-03-27T10:38:05.280Z,77.39
2018-03-27T10:39:14.117Z,76.92
2018-03-27T10:40:23.231Z,76.44
2018-03-27T10:41:32.066Z,77.68
2018-03-27T10:42:41.207Z,77.2
2018-03-27T10:43:50.052Z,77.3
2018-03-27T10:44:58.880Z,77.58
2018-03-27T10:46:07.716Z,78.34
2018-03-27T10:47:16.548Z,77.87
2018-03-27T10:48:25.483Z,78.48
2018-03-27T10:49:34.602Z,79.43
2018-03-27T10:50:43.437Z,78.86
2018-03-27T10:51:52.273Z,78.67
2018-03-27T10:53:01.109Z,81.14
2018-03-27T10:54:10.468Z,82
2018-03-27T10:55:19.316Z,82.48
2018-03-27T10:56:28.140Z,82.19
2018-03-27T10:57:36.979Z,82.76
2018-03-27T10:58:45.816Z,84
2018-03-27T10:59:54.974Z,86.47
2018-03-27T11:01:03.811Z,87.13
2018-03-27T11:02:12.645Z,86.47
2018-03-27T11:03:21.485Z,87.32
2018-03-27T11:04:30.878Z,87.56
2018-03-27T11:05:39.817Z,87.56
2018-03-27T11:06:48.654Z,87.27
2018-03-27T11:07:57.774Z,87.08
2018-03-27T11:09:06.610Z,87.56
2018-03-27T11:10:15.443Z,86.9
2018-03-27T11:11:24.680Z,87.46
2018-03-27T11:12:33.517Z,85.75
2018-03-27T11:13:42.350Z,85.28
2018-03-27T11:14:51.185Z,85.18
2018-03-27T11:16:00.020Z,85.94
2018-03-27T11:17:09.104Z,84.8
2018-03-27T11:18:17.942Z,86.13
2018-03-27T11:19:26.777Z,85.47
2018-03-27T11:20:35.616Z,85.18
2018-03-27T11:21:44.726Z,84.7
2018-03-27T11:22:53.723Z,83.85
2018-03-27T11:24:02.561Z,83.56
2018-03-27T11:25:11.402Z,84.56
2018-03-27T11:26:20.232Z,84.94
2018-03-27T11:27:29.064Z,84.46
2018-03-27T11:28:38.305Z,82.75
2018-03-27T11:29:47.138Z,81.13
2018-03-27T11:30:55.972Z,81.23
2018-03-27T11:32:04.808Z,82.56
2018-03-27T11:33:13.642Z,81.98
2018-03-27T11:34:22.906Z,79.7
2018-03-27T11:35:31.744Z,79.89
2018-03-27T11:36:40.578Z,79.41
2018-03-27T11:37:49.413Z,80.46
2018-03-27T11:38:58.250Z,80.84
2018-03-27T11:40:07.185Z,79.93
2018-03-27T11:41:16.023Z,78.69
2018-03-27T11:42:24.857Z,78.78
2018-03-27T11:43:33.692Z,79.27
2018-03-27T11:44:42.813Z,77.93
2018-03-27T11:45:51.760Z,77.93
2018-03-27T11:47:00.597Z,77.36
2018-03-27T11:48:09.432Z,76.27
2018-03-27T11:49:18.270Z,76.84
2018-03-27T11:50:27.107Z,75.36
2018-03-27T11:51:36.044Z,74.88
2018-03-27T11:52:44.881Z,75.36
2018-03-27T11:53:53.716Z,75.93
2018-03-27T11:55:02.556Z,75.16
2018-03-27T11:56:11.390Z,75.84
2018-03-27T11:57:20.704Z,75.74
2018-03-27T11:58:29.539Z,74.98
2018-03-27T11:59:38.377Z,75.59
2018-03-27T12:00:47.212Z,75.07
2018-03-27T12:01:56.046Z,75.36
2018-03-27T12:03:05.210Z,74.06
2018-03-27T12:04:14.048Z,73.01
2018-03-27T12:05:23.176Z,72.16
2018-03-27T12:06:32.014Z,71.96
2018-03-27T12:07:40.852Z,71.3
2018-03-27T12:08:49.738Z,71.2
2018-03-27T12:09:58.574Z,70.92
2018-03-27T12:11:07.698Z,71.39
2018-03-27T12:12:16.537Z,71.62
2018-03-27T12:13:25.374Z,71.23
2018-03-27T12:14:34.364Z,69.04
2018-03-27T12:15:43.204Z,68.09
2018-03-27T12:16:52.046Z,68.47
2018-03-27T12:18:00.889Z,69.14
2018-03-27T12:19:09.728Z,69.62
2018-03-27T12:20:18.874Z,69.71
2018-03-27T12:21:27.709Z,70.57
2018-03-27T12:22:36.831Z,70.76
2018-03-27T12:23:45.666Z,70.82
2018-03-27T12:24:54.521Z,70.82
2018-03-27T12:26:03.496Z,71.96
2018-03-27T12:27:12.335Z,71.39
2018-03-27T12:28:21.178Z,70.53
2018-03-27T12:29:30.019Z,69.87
2018-03-27T12:30:38.861Z,69.43
2018-03-27T12:31:47.748Z,69.23
2018-03-27T12:32:56.586Z,68.47
2018-03-27T12:34:05.426Z,68.95
2018-03-27T12:35:14.550Z,68.57
2018-03-27T12:36:23.388Z,68.18
2018-03-27T12:37:32.327Z,69.23
2018-03-27T12:38:41.440Z,70.09
2018-03-27T12:39:50.279Z,70.09
2018-03-27T12:40:59.119Z,70.28
2018-03-27T12:42:07.960Z,68.66
2018-03-27T12:43:16.853Z,69.68
2018-03-27T12:44:25.687Z,69.48
2018-03-27T12:45:34.528Z,69.29
2018-03-27T12:46:43.642Z,70.15
2018-03-27T12:47:52.481Z,69.87
2018-03-27T12:49:01.622Z,69.77
2018-03-27T12:50:10.461Z,67.39
2018-03-27T12:51:19.300Z,67.86
2018-03-27T12:52:28.140Z,67.68
2018-03-27T12:53:36.978Z,68.24
2018-03-27T12:54:46.118Z,67.29
2018-03-27T12:55:54.953Z,67.1
2018-03-27T12:57:03.796Z,67.04
2018-03-27T12:58:12.633Z,66.94
2018-03-27T12:59:21.470Z,66.28
2018-03-27T13:00:30.690Z,65.89
2018-03-27T13:01:39.528Z,64.94
2018-03-27T13:02:48.367Z,65.52
2018-03-27T13:03:57.207Z,63.7
2018-03-27T13:05:06.047Z,63.8
2018-03-27T13:06:15.281Z,64.56
2018-03-27T13:07:24.404Z,64.75
2018-03-27T13:08:33.239Z,65.61
2018-03-27T13:09:42.079Z,64.65
2018-03-27T13:10:50.919Z,65.89
2018-03-27T13:11:59.908Z,65.42
2018-03-27T13:13:09.025Z,64.94
2018-03-27T13:14:17.863Z,65.42
2018-03-27T13:15:26.699Z,65.96
2018-03-27T13:16:35.543Z,66.72
2018-03-27T13:17:44.921Z,67
2018-03-27T13:18:53.966Z,65.58
2018-03-27T13:20:03.079Z,64.85
2018-03-27T13:21:11.918Z,65.13
2018-03-27T13:22:20.756Z,64.47
2018-03-27T13:23:29.726Z,64.94
2018-03-27T13:24:38.534Z,64.37
2018-03-27T13:25:47.650Z,64.47
2018-03-27T13:26:56.490Z,65.42
2018-03-27T13:28:05.329Z,65.8
2018-03-27T13:29:14.225Z,66.56
2018-03-27T13:30:23.062Z,63.6
2018-03-27T13:31:31.901Z,63.6
2018-03-27T13:32:40.743Z,63.99
2018-03-27T13:33:49.579Z,64.28
2018-03-27T13:34:58.846Z,63.8
2018-03-27T13:36:07.681Z,63.51
2018-03-27T13:37:16.521Z,63.42
2018-03-27T13:38:25.360Z,63.32
2018-03-27T13:39:34.474Z,64.56
2018-03-27T13:40:43.313Z,64.09
2018-03-27T13:41:52.149Z,63.51
2018-03-27T13:43:01.264Z,63.23
2018-03-27T13:44:10.101Z,64.09
2018-03-27T13:45:19.223Z,65.42
2018-03-27T13:46:28.060Z,64.47
2018-03-27T13:47:36.901Z,64.94
2018-03-27T13:48:45.744Z,65.7
2018-03-27T13:49:54.576Z,65.89
2018-03-27T13:51:03.413Z,65.39
2018-03-27T13:52:12.351Z,65.77
2018-03-27T13:53:21.462Z,66.34
2018-03-27T13:54:30.300Z,65.86
2018-03-27T13:55:39.411Z,66.72
2018-03-27T13:56:48.532Z,66.72
2018-03-27T13:57:57.619Z,67
2018-03-27T13:59:06.733Z,67.68
2018-03-27T14:00:15.570Z,67.29
2018-03-27T14:01:24.406Z,67.1
2018-03-27T14:02:33.244Z,66.44
2018-03-27T14:03:42.479Z,66.72
2018-03-27T14:04:51.314Z,66.63
2018-03-27T14:06:00.149Z,66.91
2018-03-27T14:07:08.987Z,67
2018-03-27T14:08:18.101Z,67.1
2018-03-27T14:09:27.469Z,67.29
2018-03-27T14:10:36.581Z,67
2018-03-27T14:11:45.419Z,65.96
2018-03-27T14:12:54.256Z,65.8
2018-03-27T14:14:03.094Z,65.89
2018-03-27T14:15:12.086Z,65.7
2018-03-27T14:16:20.923Z,65.61
2018-03-27T14:17:29.758Z,66.85
2018-03-27T14:18:38.596Z,66.94
2018-03-27T14:19:47.438Z,66.53
2018-03-27T14:20:56.376Z,66.34
2018-03-27T14:22:05.211Z,66.53
2018-03-27T14:23:14.050Z,66.24
2018-03-27T14:24:22.889Z,65.96
2018-03-27T14:25:31.734Z,66.82
2018-03-27T14:26:40.814Z,66.44
2018-03-27T14:27:49.929Z,66.15
2018-03-27T14:28:59.042Z,66.53
2018-03-27T14:30:07.878Z,66.63
2018-03-27T14:31:16.714Z,65.77
2018-03-27T14:32:25.603Z,65.2
2018-03-27T14:33:34.441Z,66.24
2018-03-27T14:34:43.564Z,65.77
2018-03-27T14:35:52.677Z,65.96
2018-03-27T14:37:01.515Z,66.34
2018-03-27T14:38:10.559Z,66.72
2018-03-27T14:39:19.347Z,66.18
2018-03-27T14:40:28.460Z,65.23
2018-03-27T14:41:37.297Z,64.75
2018-03-27T14:42:46.419Z,65.67
2018-03-27T14:43:55.259Z,65.33
2018-03-27T14:45:04.097Z,65.39
2018-03-27T14:46:12.936Z,65.77
2018-03-27T14:47:22.054Z,66.05
2018-03-27T14:48:31.166Z,66.44
2018-03-27T14:49:40.104Z,66.72
2018-03-27T14:50:48.947Z,66.91
2018-03-27T14:51:57.786Z,66.15
2018-03-27T14:53:06.921Z,66.15
2018-03-27T14:54:15.737Z,66.97